sensor_id;sensor_type;location;lat;lon;timestamp;pressure;altitude;pressure_sealevel;temperature;humidity
80128;BME280;69440;52.118;5.408;2023-11-21T00:02:17;101222.72;;;6.66;100.00
80128;BME280;69440;52.118;5.408;2023-11-21T00:04:43;101226.19;;;6.68;100.00
80128;BME280;69440;52.118;5.408;2023-11-21T00:07:10;101224.44;;;6.67;100.00
80128;BME280;69440;52.118;5.408;2023-11-21T00:09:36;101223.63;;;6.65;100.00
80128;BME280;69440;52.118;5.408;2023-11-21T00:12:03;101229.09;;;6.62;100.00
80128;BME280;69440;52.118;5.408;2023-11-21T00:14:30;101237.16;;;6.60;100.00
80128;BME280;69440;52.118;5.408;2023-11-21T00:16:56;101233.69;;;6.58;100.00
80128;BME280;69440;52.118;5.408;2023-11-21T00:19:22;101234.78;;;6.52;100.00
80128;BME280;69440;52.118;5.408;2023-11-21T00:21:49;101237.56;;;6.49;100.00
80128;BME280;69440;52.118;5.408;2023-11-21T00:24:16;101235.88;;;6.47;100.00
80128;BME280;69440;52.118;5.408;2023-11-21T00:26:43;101241.28;;;6.45;100.00
80128;BME280;69440;52.118;5.408;2023-11-21T00:29:10;101245.75;;;6.45;100.00
80128;BME280;69440;52.118;5.408;2023-11-21T00:31:37;101252.88;;;6.44;100.00
80128;BME280;69440;52.118;5.408;2023-11-21T00:34:05;101254.75;;;6.41;100.00
80128;BME280;69440;52.118;5.408;2023-11-21T00:36:31;101253.06;;;6.38;100.00
80128;BME280;69440;52.118;5.408;2023-11-21T00:38:58;101249.59;;;6.36;100.00
80128;BME280;69440;52.118;5.408;2023-11-21T00:41:25;101247.78;;;6.37;100.00
80128;BME280;69440;52.118;5.408;2023-11-21T00:43:54;101250.56;;;6.34;100.00
80128;BME280;69440;52.118;5.408;2023-11-21T00:46:21;101257.66;;;6.35;100.00
80128;BME280;69440;52.118;5.408;2023-11-21T00:48:47;101263.09;;;6.32;100.00
80128;BME280;69440;52.118;5.408;2023-11-21T00:51:14;101250.78;;;6.28;100.00
80128;BME280;69440;52.118;5.408;2023-11-21T00:53:40;101251.72;;;6.27;100.00
80128;BME280;69440;52.118;5.408;2023-11-21T00:56:07;101259.72;;;6.27;100.00
80128;BME280;69440;52.118;5.408;2023-11-21T00:58:34;101264.13;;;6.28;100.00
80128;BME280;69440;52.118;5.408;2023-11-21T01:01:01;101261.63;;;6.23;100.00
80128;BME280;69440;52.118;5.408;2023-11-21T01:03:29;101274.81;;;6.28;100.00
80128;BME280;69440;52.118;5.408;2023-11-21T01:05:56;101276.44;;;6.32;100.00
80128;BME280;69440;52.118;5.408;2023-11-21T01:08:22;101277.38;;;6.31;100.00
80128;BME280;69440;52.118;5.408;2023-11-21T01:10:50;101274.59;;;6.34;100.00
80128;BME280;69440;52.118;5.408;2023-11-21T01:13:17;101285.16;;;6.37;100.00
80128;BME280;69440;52.118;5.408;2023-11-21T01:15:43;101282.59;;;6.34;100.00
80128;BME280;69440;52.118;5.408;2023-11-21T01:18:09;101285.25;;;6.34;100.00
80128;BME280;69440;52.118;5.408;2023-11-21T01:20:36;101289.72;;;6.33;100.00
80128;BME280;69440;52.118;5.408;2023-11-21T01:23:02;101284.66;;;6.26;100.00
80128;BME280;69440;52.118;5.408;2023-11-21T01:25:29;101289.06;;;6.27;100.00
80128;BME280;69440;52.118;5.408;2023-11-21T01:27:55;101285.53;;;6.26;100.00
80128;BME280;69440;52.118;5.408;2023-11-21T01:30:22;101279.31;;;6.26;100.00
80128;BME280;69440;52.118;5.408;2023-11-21T01:32:48;101276.66;;;6.26;100.00
80128;BME280;69440;52.118;5.408;2023-11-21T01:35:15;101284.81;;;6.21;100.00
80128;BME280;69440;52.118;5.408;2023-11-21T01:37:41;101288.31;;;6.23;100.00
80128;BME280;69440;52.118;5.408;2023-11-21T01:40:09;101290.88;;;6.26;100.00
80128;BME280;69440;52.118;5.408;2023-11-21T01:42:41;101292.41;;;6.33;100.00
80128;BME280;69440;52.118;5.408;2023-11-21T01:45:08;101290.59;;;6.34;100.00
80128;BME280;69440;52.118;5.408;2023-11-21T01:47:36;101287.78;;;6.38;100.00
80128;BME280;69440;52.118;5.408;2023-11-21T01:50:03;101296.66;;;6.39;100.00
80128;BME280;69440;52.118;5.408;2023-11-21T01:52:34;101297.53;;;6.39;100.00
80128;BME280;69440;52.118;5.408;2023-11-21T01:55:02;101302.81;;;6.41;100.00
80128;BME280;69440;52.118;5.408;2023-11-21T01:57:29;101304.47;;;6.45;100.00
80128;BME280;69440;52.118;5.408;2023-11-21T01:59:58;101299.25;;;6.40;100.00
80128;BME280;69440;52.118;5.408;2023-11-21T02:02:25;101308.84;;;6.47;100.00
80128;BME280;69440;52.118;5.408;2023-11-21T02:04:51;101306.88;;;6.52;100.00
80128;BME280;69440;52.118;5.408;2023-11-21T02:07:18;101306.66;;;6.59;100.00
80128;BME280;69440;52.118;5.408;2023-11-21T02:09:45;101315.44;;;6.62;100.00
80128;BME280;69440;52.118;5.408;2023-11-21T02:12:12;101329.47;;;6.67;100.00
80128;BME280;69440;52.118;5.408;2023-11-21T02:14:38;101327.63;;;6.69;100.00
80128;BME280;69440;52.118;5.408;2023-11-21T02:17:05;101332.84;;;6.72;100.00
80128;BME280;69440;52.118;5.408;2023-11-21T02:19:31;101341.63;;;6.77;100.00
80128;BME280;69440;52.118;5.408;2023-11-21T02:21:59;101338.78;;;6.82;100.00
80128;BME280;69440;52.118;5.408;2023-11-21T02:24:27;101338.59;;;6.87;100.00
80128;BME280;69440;52.118;5.408;2023-11-21T02:26:53;101329.59;;;6.89;100.00
80128;BME280;69440;52.118;5.408;2023-11-21T02:29:20;101340.19;;;6.92;100.00
80128;BME280;69440;52.118;5.408;2023-11-21T02:31:55;101342.75;;;6.95;100.00
80128;BME280;69440;52.118;5.408;2023-11-21T02:34:22;101339.91;;;7.00;100.00
80128;BME280;69440;52.118;5.408;2023-11-21T02:36:49;101346.06;;;7.02;100.00
80128;BME280;69440;52.118;5.408;2023-11-21T02:39:15;101337.16;;;7.01;100.00
80128;BME280;69440;52.118;5.408;2023-11-21T02:41:43;101332.69;;;7.02;100.00
80128;BME280;69440;52.118;5.408;2023-11-21T02:44:10;101338.03;;;7.02;100.00
80128;BME280;69440;52.118;5.408;2023-11-21T02:46:37;101355.81;;;7.03;100.00
80128;BME280;69440;52.118;5.408;2023-11-21T02:49:03;101349.53;;;7.05;100.00
80128;BME280;69440;52.118;5.408;2023-11-21T02:51:30;101335.06;;;7.11;100.00
80128;BME280;69440;52.118;5.408;2023-11-21T02:53:57;101345.63;;;7.14;100.00
80128;BME280;69440;52.118;5.408;2023-11-21T02:56:25;101343.72;;;7.18;100.00
80128;BME280;69440;52.118;5.408;2023-11-21T02:58:55;101338.25;;;7.21;100.00
80128;BME280;69440;52.118;5.408;2023-11-21T03:01:22;101342.56;;;7.25;100.00
80128;BME280;69440;52.118;5.408;2023-11-21T03:03:50;101339.34;;;7.15;100.00
80128;BME280;69440;52.118;5.408;2023-11-21T03:06:18;101344.47;;;7.21;100.00
80128;BME280;69440;52.118;5.408;2023-11-21T03:08:45;101348.81;;;7.24;100.00
80128;BME280;69440;52.118;5.408;2023-11-21T03:11:13;101341.56;;;7.27;100.00
80128;BME280;69440;52.118;5.408;2023-11-21T03:13:40;101352.00;;;7.35;100.00
80128;BME280;69440;52.118;5.408;2023-11-21T03:16:08;101339.50;;;7.35;100.00
80128;BME280;69440;52.118;5.408;2023-11-21T03:18:36;101339.31;;;7.40;100.00
80128;BME280;69440;52.118;5.408;2023-11-21T03:21:04;101335.59;;;7.44;100.00
80128;BME280;69440;52.118;5.408;2023-11-21T03:23:31;101343.56;;;7.45;100.00
80128;BME280;69440;52.118;5.408;2023-11-21T03:25:58;101342.50;;;7.50;100.00
80128;BME280;69440;52.118;5.408;2023-11-21T03:28:26;101347.69;;;7.54;100.00
80128;BME280;69440;52.118;5.408;2023-11-21T03:30:54;101352.91;;;7.57;100.00
80128;BME280;69440;52.118;5.408;2023-11-21T03:33:20;101349.34;;;7.57;100.00
80128;BME280;69440;52.118;5.408;2023-11-21T03:35:47;101341.22;;;7.60;100.00
80128;BME280;69440;52.118;5.408;2023-11-21T03:38:13;101352.66;;;7.63;100.00
80128;BME280;69440;52.118;5.408;2023-11-21T03:40:39;101341.97;;;7.63;100.00
80128;BME280;69440;52.118;5.408;2023-11-21T03:43:06;101349.97;;;7.63;100.00
80128;BME280;69440;52.118;5.408;2023-11-21T03:45:32;101358.88;;;7.64;100.00
80128;BME280;69440;52.118;5.408;2023-11-21T03:47:59;101353.53;;;7.64;100.00
80128;BME280;69440;52.118;5.408;2023-11-21T03:50:30;101356.13;;;7.67;100.00
80128;BME280;69440;52.118;5.408;2023-11-21T03:52:57;101366.75;;;7.68;100.00
80128;BME280;69440;52.118;5.408;2023-11-21T03:55:23;101366.75;;;7.68;100.00
80128;BME280;69440;52.118;5.408;2023-11-21T03:57:52;101367.50;;;7.72;100.00
80128;BME280;69440;52.118;5.408;2023-11-21T04:00:18;101365.78;;;7.71;100.00
80128;BME280;69440;52.118;5.408;2023-11-21T04:02:46;101375.41;;;7.75;100.00
80128;BME280;69440;52.118;5.408;2023-11-21T04:05:13;101370.88;;;7.77;100.00
80128;BME280;69440;52.118;5.408;2023-11-21T04:07:39;101378.03;;;7.76;100.00
80128;BME280;69440;52.118;5.408;2023-11-21T04:10:07;101382.50;;;7.76;100.00
80128;BME280;69440;52.118;5.408;2023-11-21T04:12:35;101384.25;;;7.77;100.00
80128;BME280;69440;52.118;5.408;2023-11-21T04:15:03;101386.00;;;7.78;100.00
80128;BME280;69440;52.118;5.408;2023-11-21T04:17:30;101390.47;;;7.77;100.00
80128;BME280;69440;52.118;5.408;2023-11-21T04:19:57;101394.84;;;7.80;100.00
80128;BME280;69440;52.118;5.408;2023-11-21T04:22:23;101399.19;;;7.83;100.00
80128;BME280;69440;52.118;5.408;2023-11-21T04:24:50;101399.19;;;7.83;100.00
80128;BME280;69440;52.118;5.408;2023-11-21T04:27:17;101404.41;;;7.86;100.00
80128;BME280;69440;52.118;5.408;2023-11-21T04:29:46;101407.03;;;7.87;100.00
80128;BME280;69440;52.118;5.408;2023-11-21T04:32:12;101406.09;;;7.88;100.00
80128;BME280;69440;52.118;5.408;2023-11-21T04:34:39;101407.84;;;7.89;100.00
80128;BME280;69440;52.118;5.408;2023-11-21T04:37:05;101420.28;;;7.90;100.00
80128;BME280;69440;52.118;5.408;2023-11-21T04:39:32;101421.28;;;7.88;100.00
80128;BME280;69440;52.118;5.408;2023-11-21T04:41:59;101422.03;;;7.91;100.00
80128;BME280;69440;52.118;5.408;2023-11-21T04:44:25;101424.72;;;7.91;100.00
80128;BME280;69440;52.118;5.408;2023-11-21T04:46:52;101437.16;;;7.92;100.00
80128;BME280;69440;52.118;5.408;2023-11-21T04:49:18;101437.97;;;7.94;100.00
80128;BME280;69440;52.118;5.408;2023-11-21T04:51:45;101437.91;;;7.96;100.00
80128;BME280;69440;52.118;5.408;2023-11-21T04:54:11;101436.16;;;7.96;100.00
80128;BME280;69440;52.118;5.408;2023-11-21T04:56:37;101432.53;;;7.97;100.00
80128;BME280;69440;52.118;5.408;2023-11-21T04:59:04;101432.63;;;7.94;100.00
80128;BME280;69440;52.118;5.408;2023-11-21T05:01:32;101429.00;;;7.95;100.00
80128;BME280;69440;52.118;5.408;2023-11-21T05:03:58;101436.03;;;7.99;100.00
80128;BME280;69440;52.118;5.408;2023-11-21T05:06:25;101431.53;;;8.00;100.00
80128;BME280;69440;52.118;5.408;2023-11-21T05:08:51;101438.63;;;8.01;100.00
80128;BME280;69440;52.118;5.408;2023-11-21T05:11:27;101444.81;;;8.03;100.00
80128;BME280;69440;52.118;5.408;2023-11-21T05:13:55;101447.47;;;8.03;100.00
80128;BME280;69440;52.118;5.408;2023-11-21T05:16:25;101459.00;;;8.05;100.00
80128;BME280;69440;52.118;5.408;2023-11-21T05:18:52;101446.44;;;8.07;100.00
80128;BME280;69440;52.118;5.408;2023-11-21T05:21:18;101457.19;;;8.05;100.00
80128;BME280;69440;52.118;5.408;2023-11-21T05:23:47;101457.06;;;8.08;100.00
80128;BME280;69440;52.118;5.408;2023-11-21T05:26:13;101456.03;;;8.13;100.00
80128;BME280;69440;52.118;5.408;2023-11-21T05:28:40;101457.88;;;8.10;100.00
80128;BME280;69440;52.118;5.408;2023-11-21T05:31:06;101459.50;;;8.15;100.00
80128;BME280;69440;52.118;5.408;2023-11-21T05:33:42;101463.13;;;8.14;100.00
80128;BME280;69440;52.118;5.408;2023-11-21T05:36:08;101468.41;;;8.15;100.00
80128;BME280;69440;52.118;5.408;2023-11-21T05:38:36;101469.22;;;8.17;100.00
80128;BME280;69440;52.118;5.408;2023-11-21T05:41:03;101472.59;;;8.22;100.00
80128;BME280;69440;52.118;5.408;2023-11-21T05:43:30;101472.72;;;8.19;100.00
80128;BME280;69440;52.118;5.408;2023-11-21T05:45:57;101473.63;;;8.18;100.00
80128;BME280;69440;52.118;5.408;2023-11-21T05:48:23;101476.38;;;8.17;100.00
80128;BME280;69440;52.118;5.408;2023-11-21T05:50:50;101487.72;;;8.23;100.00
80128;BME280;69440;52.118;5.408;2023-11-21T05:53:16;101488.59;;;8.24;100.00
80128;BME280;69440;52.118;5.408;2023-11-21T05:55:43;101496.56;;;8.25;100.00
80128;BME280;69440;52.118;5.408;2023-11-21T05:58:09;101491.13;;;8.28;100.00
80128;BME280;69440;52.118;5.408;2023-11-21T06:00:36;101502.69;;;8.29;100.00
80128;BME280;69440;52.118;5.408;2023-11-21T06:03:02;101504.50;;;8.28;100.00
80128;BME280;69440;52.118;5.408;2023-11-21T06:05:29;101500.09;;;8.27;100.00
80128;BME280;69440;52.118;5.408;2023-11-21T06:07:58;101501.81;;;8.28;100.00
80128;BME280;69440;52.118;5.408;2023-11-21T06:10:26;101500.03;;;8.29;100.00
80128;BME280;69440;52.118;5.408;2023-11-21T06:12:53;101512.53;;;8.28;100.00
80128;BME280;69440;52.118;5.408;2023-11-21T06:15:20;101519.69;;;8.28;100.00
80128;BME280;69440;52.118;5.408;2023-11-21T06:17:48;101521.44;;;8.29;100.00
80128;BME280;69440;52.118;5.408;2023-11-21T06:20:21;101515.09;;;8.31;100.00
80128;BME280;69440;52.118;5.408;2023-11-21T06:22:49;101529.34;;;8.33;100.00
80128;BME280;69440;52.118;5.408;2023-11-21T06:25:19;101531.06;;;8.34;100.00
80128;BME280;69440;52.118;5.408;2023-11-21T06:27:47;101530.16;;;8.35;100.00
80128;BME280;69440;52.118;5.408;2023-11-21T06:30:14;101526.53;;;8.36;100.00
80128;BME280;69440;52.118;5.408;2023-11-21T06:32:42;101533.63;;;8.37;100.00
80128;BME280;69440;52.118;5.408;2023-11-21T06:35:13;101529.09;;;8.39;100.00
80128;BME280;69440;52.118;5.408;2023-11-21T06:37:41;101537.13;;;8.39;100.00
80128;BME280;69440;52.118;5.408;2023-11-21T06:40:14;101534.44;;;8.39;100.00
80128;BME280;69440;52.118;5.408;2023-11-21T06:42:45;101539.75;;;8.41;100.00
80128;BME280;69440;52.118;5.408;2023-11-21T06:45:13;101544.97;;;8.44;100.00
80128;BME280;69440;52.118;5.408;2023-11-21T06:47:41;101546.66;;;8.47;100.00
80128;BME280;69440;52.118;5.408;2023-11-21T06:50:08;101542.19;;;8.47;100.00
80128;BME280;69440;52.118;5.408;2023-11-21T06:52:35;101543.00;;;8.49;100.00
80128;BME280;69440;52.118;5.408;2023-11-21T06:55:01;101553.63;;;8.51;100.00
80128;BME280;69440;52.118;5.408;2023-11-21T06:57:28;101548.22;;;8.52;100.00
80128;BME280;69440;52.118;5.408;2023-11-21T06:59:54;101558.81;;;8.55;100.00
80128;BME280;69440;52.118;5.408;2023-11-21T07:02:23;101561.34;;;8.60;100.00
80128;BME280;69440;52.118;5.408;2023-11-21T07:04:50;101563.97;;;8.61;100.00
80128;BME280;69440;52.118;5.408;2023-11-21T07:07:18;101571.06;;;8.62;100.00
80128;BME280;69440;52.118;5.408;2023-11-21T07:09:44;101568.38;;;8.62;100.00
80128;BME280;69440;52.118;5.408;2023-11-21T07:12:11;101574.50;;;8.66;100.00
80128;BME280;69440;52.118;5.408;2023-11-21T07:14:37;101582.41;;;8.69;100.00
80128;BME280;69440;52.118;5.408;2023-11-21T07:17:06;101584.16;;;8.70;100.00
80128;BME280;69440;52.118;5.408;2023-11-21T07:19:33;101592.94;;;8.74;100.00
80128;BME280;69440;52.118;5.408;2023-11-21T07:22:00;101592.94;;;8.74;100.00
80128;BME280;69440;52.118;5.408;2023-11-21T07:24:26;101591.94;;;8.76;100.00
80128;BME280;69440;52.118;5.408;2023-11-21T07:26:53;101592.75;;;8.78;100.00
80128;BME280;69440;52.118;5.408;2023-11-21T07:29:25;101607.72;;;8.84;100.00
80128;BME280;69440;52.118;5.408;2023-11-21T07:31:52;101605.75;;;8.89;100.00
80128;BME280;69440;52.118;5.408;2023-11-21T07:34:20;101605.50;;;8.95;100.00
80128;BME280;69440;52.118;5.408;2023-11-21T07:36:47;101609.94;;;8.96;100.00
80128;BME280;69440;52.118;5.408;2023-11-21T07:39:14;101600.09;;;8.96;100.00
80128;BME280;69440;52.118;5.408;2023-11-21T07:41:42;101606.25;;;8.98;100.00
80128;BME280;69440;52.118;5.408;2023-11-21T07:44:18;101615.97;;;9.01;100.00
80128;BME280;69440;52.118;5.408;2023-11-21T07:46:46;101614.09;;;9.03;100.00
80128;BME280;69440;52.118;5.408;2023-11-21T07:49:12;101619.41;;;9.05;100.00
80128;BME280;69440;52.118;5.408;2023-11-21T07:51:43;101620.16;;;9.08;100.00
80128;BME280;69440;52.118;5.408;2023-11-21T07:54:11;101626.31;;;9.10;100.00
80128;BME280;69440;52.118;5.408;2023-11-21T07:56:37;101628.00;;;9.13;100.00
80128;BME280;69440;52.118;5.408;2023-11-21T07:59:04;101637.69;;;9.17;100.00
80128;BME280;69440;52.118;5.408;2023-11-21T08:01:30;101634.06;;;9.18;100.00
80128;BME280;69440;52.118;5.408;2023-11-21T08:03:58;101648.31;;;9.20;100.00
80128;BME280;69440;52.118;5.408;2023-11-21T08:06:28;101651.59;;;9.26;100.00
80128;BME280;69440;52.118;5.408;2023-11-21T08:08:55;101651.34;;;9.32;100.00
80128;BME280;69440;52.118;5.408;2023-11-21T08:11:21;101655.66;;;9.37;100.00
80128;BME280;69440;52.118;5.408;2023-11-21T08:13:48;101658.22;;;9.40;100.00
80128;BME280;69440;52.118;5.408;2023-11-21T08:16:15;101671.56;;;9.41;100.00
80128;BME280;69440;52.118;5.408;2023-11-21T08:18:43;101672.31;;;9.45;100.00
80128;BME280;69440;52.118;5.408;2023-11-21T08:21:12;101679.41;;;9.46;100.00
80128;BME280;69440;52.118;5.408;2023-11-21T08:23:39;101687.34;;;9.49;100.00
80128;BME280;69440;52.118;5.408;2023-11-21T08:26:05;101687.25;;;9.52;100.00
80128;BME280;69440;52.118;5.408;2023-11-21T08:28:32;101694.22;;;9.56;100.00
80128;BME280;69440;52.118;5.408;2023-11-21T08:31:00;101690.53;;;9.58;100.00
80128;BME280;69440;52.118;5.408;2023-11-21T08:33:27;101701.22;;;9.60;100.00
80128;BME280;69440;52.118;5.408;2023-11-21T08:35:54;101705.63;;;9.61;100.00
80128;BME280;69440;52.118;5.408;2023-11-21T08:38:20;101710.19;;;9.59;100.00
80128;BME280;69440;52.118;5.408;2023-11-21T08:40:47;101721.81;;;9.59;100.00
80128;BME280;69440;52.118;5.408;2023-11-21T08:43:13;101717.31;;;9.60;100.00
80128;BME280;69440;52.118;5.408;2023-11-21T08:45:40;101721.75;;;9.61;100.00
80128;BME280;69440;52.118;5.408;2023-11-21T08:48:07;101731.47;;;9.63;100.00
80128;BME280;69440;52.118;5.408;2023-11-21T08:50:34;101734.03;;;9.67;100.00
80128;BME280;69440;52.118;5.408;2023-11-21T08:53:01;101731.16;;;9.71;100.00
80128;BME280;69440;52.118;5.408;2023-11-21T08:55:27;101731.03;;;9.74;100.00
80128;BME280;69440;52.118;5.408;2023-11-21T08:57:55;101739.03;;;9.76;100.00
80128;BME280;69440;52.118;5.408;2023-11-21T09:00:24;101738.88;;;9.79;100.00
80128;BME280;69440;52.118;5.408;2023-11-21T09:02:50;101739.66;;;9.82;100.00
80128;BME280;69440;52.118;5.408;2023-11-21T09:05:17;101728.72;;;9.87;100.00
80128;BME280;69440;52.118;5.408;2023-11-21T09:07:45;101740.88;;;9.95;100.00
80128;BME280;69440;52.118;5.408;2023-11-21T09:10:12;101743.91;;;10.08;100.00
80128;BME280;69440;52.118;5.408;2023-11-21T09:12:39;101757.84;;;10.18;100.00
80128;BME280;69440;52.118;5.408;2023-11-21T09:15:07;101764.00;;;10.21;100.00
80128;BME280;69440;52.118;5.408;2023-11-21T09:17:34;101768.38;;;10.24;100.00
80128;BME280;69440;52.118;5.408;2023-11-21T09:20:02;101769.25;;;10.24;100.00
80128;BME280;69440;52.118;5.408;2023-11-21T09:22:30;101782.84;;;10.20;100.00
80128;BME280;69440;52.118;5.408;2023-11-21T09:24:58;101765.91;;;10.18;100.00
80128;BME280;69440;52.118;5.408;2023-11-21T09:27:24;101775.03;;;10.14;100.00
80128;BME280;69440;52.118;5.408;2023-11-21T09:29:52;101785.66;;;10.17;100.00
80128;BME280;69440;52.118;5.408;2023-11-21T09:32:20;101782.03;;;10.18;100.00
80128;BME280;69440;52.118;5.408;2023-11-21T09:34:48;101792.84;;;10.16;100.00
80128;BME280;69440;52.118;5.408;2023-11-21T09:37:16;101794.72;;;10.14;100.00
80128;BME280;69440;52.118;5.408;2023-11-21T09:39:43;101808.22;;;10.13;100.00
80128;BME280;69440;52.118;5.408;2023-11-21T09:42:17;101815.47;;;10.11;100.00
80128;BME280;69440;52.118;5.408;2023-11-21T09:45:05;101812.06;;;10.06;100.00
80128;BME280;69440;52.118;5.408;2023-11-21T09:47:38;101815.81;;;10.02;100.00
80128;BME280;69440;52.118;5.408;2023-11-21T09:50:05;101820.31;;;10.01;100.00
80128;BME280;69440;52.118;5.408;2023-11-21T09:52:49;101826.63;;;10.00;100.00
80128;BME280;69440;52.118;5.408;2023-11-21T09:55:20;101827.63;;;9.98;100.00
80128;BME280;69440;52.118;5.408;2023-11-21T09:57:48;101832.06;;;9.99;100.00
80128;BME280;69440;52.118;5.408;2023-11-21T10:00:15;101833.88;;;9.98;100.00
80128;BME280;69440;52.118;5.408;2023-11-21T10:02:44;101835.69;;;9.98;100.00
80128;BME280;69440;52.118;5.408;2023-11-21T10:05:11;101840.19;;;9.97;100.00
80128;BME280;69440;52.118;5.408;2023-11-21T10:07:39;101852.88;;;9.93;100.00
80128;BME280;69440;52.118;5.408;2023-11-21T10:10:07;101844.88;;;9.92;100.00
80128;BME280;69440;52.118;5.408;2023-11-21T10:12:35;101844.94;;;9.90;100.00
80128;BME280;69440;52.118;5.408;2023-11-21T10:15:03;101848.50;;;9.91;100.00
80128;BME280;69440;52.118;5.408;2023-11-21T10:17:33;101856.63;;;9.89;100.00
80128;BME280;69440;52.118;5.408;2023-11-21T10:20:12;101867.34;;;9.89;100.00
80128;BME280;69440;52.118;5.408;2023-11-21T10:22:41;101873.28;;;9.98;100.00
80128;BME280;69440;52.118;5.408;2023-11-21T10:25:12;101879.34;;;10.03;100.00
80128;BME280;69440;52.118;5.408;2023-11-21T10:27:41;101883.72;;;10.05;100.00
80128;BME280;69440;52.118;5.408;2023-11-21T10:30:08;101882.63;;;10.11;100.00
80128;BME280;69440;52.118;5.408;2023-11-21T10:32:39;101888.03;;;10.09;100.00
80128;BME280;69440;52.118;5.408;2023-11-21T10:35:07;101883.50;;;10.11;100.00
80128;BME280;69440;52.118;5.408;2023-11-21T10:37:39;101888.03;;;10.09;100.00
80128;BME280;69440;52.118;5.408;2023-11-21T10:40:10;101894.47;;;10.05;100.00
80128;BME280;69440;52.118;5.408;2023-11-21T10:42:40;101900.00;;;10.01;100.00
80128;BME280;69440;52.118;5.408;2023-11-21T10:45:08;101911.88;;;9.95;100.00
80128;BME280;69440;52.118;5.408;2023-11-21T10:47:41;101917.56;;;9.87;100.00
80128;BME280;69440;52.118;5.408;2023-11-21T10:50:09;101928.28;;;9.87;100.00
80128;BME280;69440;52.118;5.408;2023-11-21T10:52:42;101932.91;;;9.84;100.00
80128;BME280;69440;52.118;5.408;2023-11-21T10:55:20;101932.97;;;9.82;100.00
80128;BME280;69440;52.118;5.408;2023-11-21T10:57:49;101940.22;;;9.80;100.00
80128;BME280;69440;52.118;5.408;2023-11-21T11:00:18;101937.53;;;9.80;100.00
80128;BME280;69440;52.118;5.408;2023-11-21T11:02:52;101948.16;;;9.83;100.00
80128;BME280;69440;52.118;5.408;2023-11-21T11:05:22;101945.28;;;9.88;100.00
80128;BME280;69440;52.118;5.408;2023-11-21T11:07:51;101952.41;;;9.89;100.00
80128;BME280;69440;52.118;5.408;2023-11-21T11:10:26;101938.97;;;9.89;100.00
80128;BME280;69440;52.118;5.408;2023-11-21T11:12:54;101944.34;;;9.89;100.00
80128;BME280;69440;52.118;5.408;2023-11-21T11:15:21;101940.66;;;9.91;100.00
80128;BME280;69440;52.118;5.408;2023-11-21T11:17:48;101946.72;;;9.96;100.00
80128;BME280;69440;52.118;5.408;2023-11-21T11:20:16;101940.53;;;9.94;100.00
80128;BME280;69440;52.118;5.408;2023-11-21T11:25:27;101951.28;;;9.94;100.00
80128;BME280;69440;52.118;5.408;2023-11-21T11:31:04;101954.78;;;9.96;100.00
80128;BME280;69440;52.118;5.408;2023-11-21T11:33:45;101956.59;;;9.96;100.00
80128;BME280;69440;52.118;5.408;2023-11-21T11:39:00;101956.41;;;10.01;100.00
80128;BME280;69440;52.118;5.408;2023-11-21T11:41:31;101956.41;;;10.01;100.00
80128;BME280;69440;52.118;5.408;2023-11-21T11:44:00;101971.53;;;10.03;100.00
80128;BME280;69440;52.118;5.408;2023-11-21T11:46:45;101965.03;;;10.09;100.00
80128;BME280;69440;52.118;5.408;2023-11-21T11:49:27;101975.75;;;10.10;100.00
80128;BME280;69440;52.118;5.408;2023-11-21T11:54:59;101986.53;;;10.09;100.00
80128;BME280;69440;52.118;5.408;2023-11-21T11:57:26;101979.41;;;10.08;100.00
80128;BME280;69440;52.118;5.408;2023-11-21T12:00:15;101987.38;;;10.11;100.00
80128;BME280;69440;52.118;5.408;2023-11-21T12:02:48;101984.69;;;10.11;100.00
80128;BME280;69440;52.118;5.408;2023-11-21T12:05:20;101988.25;;;10.11;100.00
80128;BME280;69440;52.118;5.408;2023-11-21T12:10:16;101999.88;;;10.12;100.00
80128;BME280;69440;52.118;5.408;2023-11-21T12:12:52;101996.25;;;10.13;100.00
80128;BME280;69440;52.118;5.408;2023-11-21T12:15:19;102006.19;;;10.11;100.00
80128;BME280;69440;52.118;5.408;2023-11-21T12:17:46;102001.63;;;10.13;100.00
80128;BME280;69440;52.118;5.408;2023-11-21T12:20:13;102011.38;;;10.15;100.00
80128;BME280;69440;52.118;5.408;2023-11-21T12:22:48;102011.50;;;10.12;100.00
80128;BME280;69440;52.118;5.408;2023-11-21T12:25:22;102008.81;;;10.12;100.00
80128;BME280;69440;52.118;5.408;2023-11-21T12:27:51;102004.31;;;10.13;100.00
80128;BME280;69440;52.118;5.408;2023-11-21T12:30:20;102011.63;;;10.08;100.00
80128;BME280;69440;52.118;5.408;2023-11-21T12:32:52;102009.88;;;10.07;100.00
80128;BME280;69440;52.118;5.408;2023-11-21T12:35:22;102010.72;;;10.09;100.00
80128;BME280;69440;52.118;5.408;2023-11-21T12:37:51;102013.50;;;10.06;100.00
80128;BME280;69440;52.118;5.408;2023-11-21T12:40:18;102012.75;;;10.02;100.00
80128;BME280;69440;52.118;5.408;2023-11-21T12:42:51;102022.69;;;10.00;100.00
80128;BME280;69440;52.118;5.408;2023-11-21T12:45:18;102034.06;;;10.07;100.00
80128;BME280;69440;52.118;5.408;2023-11-21T12:47:50;102030.75;;;10.00;100.00
80128;BME280;69440;52.118;5.408;2023-11-21T12:50:23;102034.41;;;9.98;100.00
80128;BME280;69440;52.118;5.408;2023-11-21T12:52:51;102039.91;;;9.94;100.00
80128;BME280;69440;52.118;5.408;2023-11-21T12:55:19;102038.22;;;9.92;100.00
80128;BME280;69440;52.118;5.408;2023-11-21T12:57:49;102043.59;;;9.92;100.00
80128;BME280;69440;52.118;5.408;2023-11-21T13:00:18;102047.16;;;9.92;100.00
80128;BME280;69440;52.118;5.408;2023-11-21T13:02:55;102049.88;;;9.91;100.00
80128;BME280;69440;52.118;5.408;2023-11-21T13:05:34;102054.16;;;9.96;100.00
80128;BME280;69440;52.118;5.408;2023-11-21T13:08:02;102046.09;;;9.96;100.00